Weather at Hacienda El Oasis Airport

Public forecast

Using degrees Celsius for public forecast. Weather courtesy of forecast.io.

Closest aviation weather report (METAR) to Hacienda El Oasis Airport

Closest report is Guanare Airport, 41.3 nm (76.5 km) NNE.

2024/07/18 17:03 (retrieved 58 minutes ago)

SVGU 181703Z AUTO ///01KT NCD ///// Q1018

Closest aviation forecast (TAF) to Hacienda El Oasis Airport

Forecast is more than 12 hours old.

Closest forecast is Barquisimeto International Airport, 106.6 nm (197.4 km) NNE.

2024/07/17 18:58 (retrieved 23 hours ago)

TAF SVBM 171645Z 1718/1818 09010KT 4000 VCTSSH FEW013CB SCT070 TX32/1800Z TN20/0800Z BECMG 1722/1800 11008KT 6000 TSDZ FEW013 CB BKN060